Time,TemperatureF,DewpointF,PressureIn,WindDirection,WindDirectionDegrees,WindSpeedMPH,WindSpeedGustMPH,Humidity,HourlyPrecipIn,Conditions,Clouds,dailyrainin,SoftwareType,DateUTC
2013-05-23 00:07:00,68.8,60.0,29.79,NE,53,2.0,8.0,73,0.00,,,0.00,weatherlink.com 1.10,2013-05-23 04:07:00,
2013-05-23 01:30:00,66.1,60.0,29.79,ENE,57,0.0,1.0,80,0.00,,,0.00,weatherlink.com 1.10,2013-05-23 05:30:00,
2013-05-23 01:50:00,65.4,61.0,29.81,ENE,75,3.0,4.0,85,0.00,,,0.00,weatherlink.com 1.10,2013-05-23 05:50:00,
2013-05-23 02:08:00,64.9,61.0,29.83,ENE,74,5.0,7.0,87,0.00,,,0.00,weatherlink.com 1.10,2013-05-23 06:08:00,
2013-05-23 02:26:00,64.8,62.0,29.84,NE,46,3.0,13.0,89,0.05,,,0.05,weatherlink.com 1.10,2013-05-23 06:26:00,
2013-05-23 02:46:00,63.4,61.0,29.81,NE,35,0.0,5.0,93,0.08,,,0.08,weatherlink.com 1.10,2013-05-23 06:46:00,
2013-05-23 03:04:00,62.9,61.0,29.79,East,87,0.0,1.0,93,0.09,,,0.09,weatherlink.com 1.10,2013-05-23 07:04:00,
2013-05-23 03:22:00,62.4,61.0,29.80,ENE,66,1.0,2.0,94,0.08,,,0.09,weatherlink.com 1.10,2013-05-23 07:22:00,
2013-05-23 03:40:00,62.1,60.0,29.79,ENE,63,0.0,1.0,94,0.01,,,0.09,weatherlink.com 1.10,2013-05-23 07:40:00,
2013-05-23 04:00:00,61.6,60.0,29.78,ENE,77,1.0,2.0,94,0.00,,,0.09,weatherlink.com 1.10,2013-05-23 08:00:00,
2013-05-23 04:18:00,62.0,60.0,29.78,ENE,73,1.0,3.0,93,0.00,,,0.09,weatherlink.com 1.10,2013-05-23 08:18:00,
2013-05-23 04:36:00,62.1,60.0,29.78,NE,50,0.0,3.0,93,0.00,,,0.09,weatherlink.com 1.10,2013-05-23 08:36:00,
2013-05-23 04:57:00,62.3,60.0,29.78,ENE,61,0.0,4.0,93,0.00,,,0.09,weatherlink.com 1.10,2013-05-23 08:57:00,
2013-05-23 05:13:00,62.5,60.0,29.78,NE,37,1.0,4.0,92,0.00,,,0.09,weatherlink.com 1.10,2013-05-23 09:13:00,
2013-05-23 05:33:00,61.7,60.0,29.79,ENE,75,0.0,0.0,93,0.00,,,0.09,weatherlink.com 1.10,2013-05-23 09:33:00,
2013-05-23 05:51:00,61.3,60.0,29.79,ENE,75,0.0,0.0,94,0.00,,,0.09,weatherlink.com 1.10,2013-05-23 09:51:00,
2013-05-23 06:09:00,61.3,60.0,29.80,ENE,75,0.0,0.0,95,0.00,,,0.09,weatherlink.com 1.10,2013-05-23 10:09:00,
2013-05-23 06:27:00,61.4,60.0,29.80,ENE,75,0.0,0.0,96,0.00,,,0.09,weatherlink.com 1.10,2013-05-23 10:27:00,
2013-05-23 06:47:00,62.3,61.0,29.81,ENE,73,3.0,5.0,95,0.00,,,0.09,weatherlink.com 1.10,2013-05-23 10:47:00,
2013-05-23 07:05:00,62.8,61.0,29.81,NE,37,5.0,9.0,95,0.02,,,0.11,weatherlink.com 1.10,2013-05-23 11:05:00,
2013-05-23 07:23:00,63.3,62.0,29.82,NE,39,6.0,9.0,95,0.02,,,0.11,weatherlink.com 1.10,2013-05-23 11:23:00,
2013-05-23 07:43:00,63.5,62.0,29.82,ENE,75,3.0,6.0,95,0.02,,,0.11,weatherlink.com 1.10,2013-05-23 11:43:00,
2013-05-23 08:01:00,63.6,62.0,29.82,NE,51,2.0,7.0,95,0.02,,,0.12,weatherlink.com 1.10,2013-05-23 12:01:00,
2013-05-23 08:19:00,63.9,62.0,29.82,ENE,76,4.0,8.0,94,0.01,,,0.12,weatherlink.com 1.10,2013-05-23 12:19:00,
2013-05-23 08:39:00,64.2,63.0,29.83,ENE,57,5.0,9.0,94,0.01,,,0.12,weatherlink.com 1.10,2013-05-23 12:39:00,
2013-05-23 08:57:00,64.5,63.0,29.83,ENE,72,7.0,11.0,93,0.00,,,0.12,weatherlink.com 1.10,2013-05-23 12:57:00,
2013-05-23 09:15:00,65.2,63.0,29.82,NE,41,10.0,10.0,93,0.00,,,0.12,weatherlink.com 1.10,2013-05-23 13:15:00,
2013-05-23 09:33:00,66.5,64.0,29.83,ENE,70,4.0,8.0,91,0.00,,,0.12,weatherlink.com 1.10,2013-05-23 13:33:00,
2013-05-23 09:53:00,67.7,64.0,29.82,ENE,65,8.0,10.0,89,0.00,,,0.12,weatherlink.com 1.10,2013-05-23 13:53:00,
2013-05-23 10:11:00,69.0,65.0,29.82,East,84,0.0,7.0,87,0.00,,,0.12,weatherlink.com 1.10,2013-05-23 14:11:00,
2013-05-23 10:29:00,69.3,64.0,29.82,ENE,68,3.0,9.0,83,0.00,,,0.12,weatherlink.com 1.10,2013-05-23 14:29:00,
2013-05-23 10:49:00,68.8,64.0,29.82,NE,41,3.0,11.0,83,0.00,,,0.12,weatherlink.com 1.10,2013-05-23 14:49:00,
2013-05-23 11:07:00,70.1,64.0,29.82,NNE,30,5.0,10.0,81,0.00,,,0.12,weatherlink.com 1.10,2013-05-23 15:07:00,
2013-05-23 11:25:00,71.6,64.0,29.82,ESE,104,3.0,8.0,77,0.00,,,0.12,weatherlink.com 1.10,2013-05-23 15:25:00,
2013-05-23 11:45:00,73.0,65.0,29.82,NE,49,10.0,10.0,76,0.00,,,0.12,weatherlink.com 1.10,2013-05-23 15:45:00,
2013-05-23 12:03:00,73.1,64.0,29.82,ENE,71,2.0,9.0,73,0.00,,,0.12,weatherlink.com 1.10,2013-05-23 16:03:00,
2013-05-23 12:21:00,73.5,64.0,29.82,ENE,58,10.0,10.0,73,0.00,,,0.12,weatherlink.com 1.10,2013-05-23 16:21:00,
2013-05-23 12:39:00,73.2,62.0,29.81,NE,41,5.0,11.0,68,0.00,,,0.12,weatherlink.com 1.10,2013-05-23 16:39:00,
2013-05-23 12:59:00,74.1,63.0,29.80,NNE,33,2.0,11.0,68,0.00,,,0.12,weatherlink.com 1.10,2013-05-23 16:59:00,
2013-05-23 13:17:00,73.5,62.0,29.79,NNE,33,2.0,9.0,67,0.00,,,0.12,weatherlink.com 1.10,2013-05-23 17:17:00,
2013-05-23 13:35:00,73.1,63.0,29.79,ENE,64,1.0,11.0,70,0.00,,,0.12,weatherlink.com 1.10,2013-05-23 17:35:00,
2013-05-23 13:55:00,75.3,62.0,29.77,ENE,71,3.0,11.0,63,0.00,,,0.12,weatherlink.com 1.10,2013-05-23 17:55:00,
2013-05-23 14:13:00,75.1,62.0,29.77,East,79,4.0,10.0,65,0.00,,,0.12,weatherlink.com 1.10,2013-05-23 18:13:00,
2013-05-23 14:31:00,74.4,63.0,29.77,ESE,117,5.0,8.0,67,0.00,,,0.12,weatherlink.com 1.10,2013-05-23 18:31:00,
2013-05-23 14:49:00,75.0,63.0,29.76,ESE,108,1.0,7.0,66,0.00,,,0.12,weatherlink.com 1.10,2013-05-23 18:49:00,
2013-05-23 15:09:00,75.3,61.0,29.76,NE,56,8.0,12.0,62,0.00,,,0.12,weatherlink.com 1.10,2013-05-23 19:09:00,
2013-05-23 15:27:00,71.0,58.0,29.78,SE,146,7.0,20.0,63,0.00,,,0.12,weatherlink.com 1.10,2013-05-23 19:27:00,
2013-05-23 15:45:00,65.6,58.0,29.80,NE,38,8.0,13.0,76,0.00,,,0.12,weatherlink.com 1.10,2013-05-23 19:45:00,
2013-05-23 16:05:00,61.8,59.0,29.82,NE,51,0.0,5.0,91,0.48,,,0.60,weatherlink.com 1.10,2013-05-23 20:05:00,
2013-05-23 16:23:00,61.2,60.0,29.80,ENE,61,0.0,5.0,94,0.55,,,0.67,weatherlink.com 1.10,2013-05-23 20:23:00,
2013-05-23 16:41:00,61.2,60.0,29.80,ENE,71,1.0,3.0,94,0.58,,,0.70,weatherlink.com 1.10,2013-05-23 20:41:00,
2013-05-23 17:01:00,61.0,60.0,29.79,NNW,342,0.0,1.0,95,0.24,,,0.78,weatherlink.com 1.10,2013-05-23 21:01:00,
2013-05-23 17:19:00,61.2,60.0,29.78,NW,319,0.0,2.0,95,0.14,,,0.79,weatherlink.com 1.10,2013-05-23 21:19:00,
2013-05-23 17:37:00,62.3,61.0,29.78,ENE,77,0.0,4.0,94,0.10,,,0.80,weatherlink.com 1.10,2013-05-23 21:37:00,
2013-05-23 17:55:00,63.2,61.0,29.77,East,82,0.0,5.0,92,0.04,,,0.80,weatherlink.com 1.10,2013-05-23 21:55:00,
2013-05-23 18:15:00,63.2,61.0,29.76,NE,42,0.0,3.0,92,0.01,,,0.80,weatherlink.com 1.10,2013-05-23 22:15:00,
2013-05-23 18:33:00,63.2,61.0,29.75,ENE,60,1.0,2.0,93,0.00,,,0.80,weatherlink.com 1.10,2013-05-23 22:33:00,
2013-05-23 18:51:00,64.1,62.0,29.75,ENE,72,0.0,4.0,94,0.00,,,0.80,weatherlink.com 1.10,2013-05-23 22:51:00,
2013-05-23 19:11:00,64.3,61.0,29.76,ENE,60,3.0,9.0,90,0.00,,,0.80,weatherlink.com 1.10,2013-05-23 23:11:00,
2013-05-23 19:29:00,63.1,61.0,29.77,NNE,27,2.0,11.0,91,0.00,,,0.80,weatherlink.com 1.10,2013-05-23 23:29:00,
2013-05-23 19:47:00,62.8,61.0,29.77,East,82,1.0,5.0,92,0.00,,,0.80,weatherlink.com 1.10,2013-05-23 23:47:00,
2013-05-23 20:07:00,62.6,61.0,29.79,East,90,0.0,8.0,93,0.00,,,0.80,weatherlink.com 1.10,2013-05-24 00:07:00,
2013-05-23 20:25:00,62.6,61.0,29.79,ENE,70,1.0,3.0,93,0.00,,,0.80,weatherlink.com 1.10,2013-05-24 00:25:00,
2013-05-23 20:43:00,62.4,61.0,29.79,NE,55,1.0,5.0,94,0.00,,,0.80,weatherlink.com 1.10,2013-05-24 00:43:00,
2013-05-23 21:01:00,62.2,61.0,29.79,ENE,65,0.0,2.0,94,0.00,,,0.80,weatherlink.com 1.10,2013-05-24 01:01:00,
2013-05-23 21:21:00,62.1,61.0,29.79,ENE,60,2.0,3.0,95,0.02,,,0.82,weatherlink.com 1.10,2013-05-24 01:21:00,
2013-05-23 21:39:00,62.0,61.0,29.79,ENE,64,0.0,2.0,95,0.07,,,0.87,weatherlink.com 1.10,2013-05-24 01:39:00,
2013-05-23 21:57:00,61.3,60.0,29.80,ENE,65,3.0,5.0,95,0.09,,,0.89,weatherlink.com 1.10,2013-05-24 01:57:00,
2013-05-23 22:17:00,60.3,59.0,29.80,NE,56,1.0,3.0,95,0.11,,,0.91,weatherlink.com 1.10,2013-05-24 02:17:00,
2013-05-23 22:35:00,60.1,59.0,29.81,ENE,70,0.0,2.0,96,0.07,,,0.92,weatherlink.com 1.10,2013-05-24 02:35:00,
2013-05-23 22:53:00,60.1,59.0,29.81,East,96,0.0,3.0,96,0.04,,,0.93,weatherlink.com 1.10,2013-05-24 02:53:00,
2013-05-23 23:13:00,59.8,59.0,29.82,East,96,0.0,4.0,96,0.04,,,0.95,weatherlink.com 1.10,2013-05-24 03:13:00,
2013-05-23 23:31:00,59.5,58.0,29.81,ESE,110,0.0,2.0,96,0.04,,,0.95,weatherlink.com 1.10,2013-05-24 03:31:00,
2013-05-23 23:49:00,59.1,58.0,29.81,ESE,106,1.0,4.0,96,0.03,,,0.95,weatherlink.com 1.10,2013-05-24 03:49:00,